AirNav   Pilot Hours Calculator
 
 493 users online  

1MI3 Black River Ranch Airport
Onaway, Michigan, USA

GOING TO ONAWAY?


FAA INFORMATION EFFECTIVE 07 OCTOBER 2021

Location

FAA Identifier: 1MI3
Lat/Long: 45-11-45.0440N 084-19-18.0540W
45-11.750733N 084-19.300900W
45.1958456,-84.3216817
(estimated)
Elevation: 880 ft. / 268 m (estimated)
Variation: 06W (1985)
From city: 10 miles SW of ONAWAY, MI
Time zone: UTC -4 (UTC -5 during Standard Time)
Zip code: 49765

Airport Operations

Airport use: Private use. Permission required prior to landing
Activation date: 11/1948
Control tower: no
ARTCC: MINNEAPOLIS CENTER
FSS: LANSING FLIGHT SERVICE STATION
Attendance: UNATNDD
Wind indicator: no
Segmented circle: no

Airport Communications

CTAF: 122.9
WX ASOS at GLR (20 nm SW): 118.375 (989-732-1571)

Nearby radio navigation aids

VOR radial/distance  VOR name  Freq  Var
GLRr062/19.6GAYLORD VOR/DME109.2006W
PLNr157/29.8PELLSTON VORTAC111.8006W
APNr289/33.1ALPENA VORTAC108.8007W
CGGr035/(35.4)GRAYLING VOR109.8006W

 
NDB name  Hdg/Dist  Freq  Var  ID
GRAYLING045/34.335906WGYG --. -.-- --.

Airport Services

Airframe service: NONE
Powerplant service: NONE

Runway Information

Runway E/W

Dimensions: 3900 x 60 ft. / 1189 x 18 m
Surface: asphalt
RUNWAY E  RUNWAY W
Traffic pattern: leftleft
Obstructions: nonepline

Airport Ownership and Management from official FAA records

Ownership: Privately-owned
Owner: BLACK RIVER RANCH INC
9410 CLARK BRIDGE RD
ONAWAY, MI 49765-8510
Phone 989-733-8375
Manager: TIM MICHIEL
9410 CLARK BRIDGE RD
ONAWAY, MI 49765-8510
Phone 989-733-8375

Airport Operational Statistics

Aircraft based on the field: 5
Single engine airplanes: 2
Multi engine airplanes: 1
Jet airplanes: 2
    

Additional Remarks

FOR CD CTC MINNEAPOLIS ARTCC AT 651-463-5588.

Instrument Procedures

There are no published instrument procedures at 1MI3.

Some nearby airports with instrument procedures:

KGLR - Gaylord Regional Airport (20 nm SW)
KPZQ - Presque Isle County Airport (25 nm NE)
KBFA - Boyne Mountain Airport (26 nm W)
N98 - Boyne City Municipal Airport (28 nm W)
KMGN - Harbor Springs Airport (29 nm NW)
 
Loc | Ops | Rwys | IFR | FBO | Links
Com | Nav | Svcs | Stats | Notes
Area around 1MI3 (Black River Ranch Airport)
 
Road maps at: MapQuest Bing Google
 
Aerial photo
No photo
 
Sectional chart

 
Airport distance calculator
Flying to Black River Ranch Airport? Find the distance to fly.

From to 1MI3

Sunrise and sunset
Times for 16-Oct-2021
 Local
(UTC-4)
 Zulu
(UTC)
Morning civil twilight07:2611:26
Sunrise07:5611:56
Sunset18:5022:50
Evening civil twilight19:2023:20

Current date and time
Zulu (UTC)  16-Oct-2021 06:15:36
Local (UTC-4)  16-Oct-2021 02:15:36
 
METAR
KGLR 
19nm SW 
160553Z AUTO 27004KT 10SM BKN055 OVC070 10/07 A2978 RMK AO2 SLP087 60000 T01000067 10111 20100 58009
KPZQ 
25nm NE 
160555Z AUTO 26003KT 10SM BKN060 OVC070 10/09 A2977 RMK AO2 T01020093 10126 20102
KSLH 
28nm N 
160555Z AUTO 00000KT 10SM SCT023 SCT065 BKN080 10/09 A2976 RMK AO2
KMGN 
29nm NW 
160555Z AUTO 00000KT 10SM CLR 08/07 A2978 RMK AO2 T00830075
KPLN 
30nm NW 
160554Z AUTO 00000KT 10SM CLR 09/08 A2978 RMK AO2 SLP086 60001 T00890078 10117 20089 58008
KAPN 
33nm E 
160554Z AUTO 29003KT 10SM OVC038 11/10 A2977 RMK AO2 SLP081 60006 T01110100 10133 20111 56010
KGOV 
35nm SW 
160558Z AUTO 28003KT 10SM OVC055 09/09 A2979 RMK AO2 SLP095 60000 T00920089 10112 20092 58005 $
TAF
KPLN 
30nm NW 
160520Z 1606/1706 30005KT P6SM VCSH BKN035 OVC060 FM161500 30012G21KT P6SM VCSH OVC035 FM170300 30011G20KT P6SM OVC040
KAPN 
33nm E 
160520Z 1606/1706 30005KT P6SM BKN025 OVC035 FM161500 29012G21KT P6SM VCSH OVC035 FM170300 29009KT P6SM OVC040
NOTAMs
Click for the latest NOTAMs
NOTAMs are issued by the DoD/FAA and will open in a separate window not controlled by AirNav.

 

 
 

Would you like to see your business listed on this page?

 If your business provides an interesting product or service to pilots, flight crews, aircraft, or users of the Black River Ranch Airport, you should consider listing it here.  To start the listing process, click on the button below
 
Add a business
 

Other Pages about Black River Ranch Airport

Update a link
 
Copyright © AirNav, LLC. All rights reserved. Privacy Policy  Contact